»·PEaware :: ASA714 KSEA-KSFO

ASA714 :: KSEA-KSFO

FLIGHT INFORMATION

Flight Status: Arrived
Operator:
Alaska Airlines
More flights by this operator :: More flights under this callsign
Pilot: Drew L. (13237)
Aircraft: AIRBUS A320
(A320)
More flights by this aircraft type
Origin: KSEA Seattle-Tacoma Intl
United States
Destination: KSFO San Francisco Intl
United States
More flights between these airports :: More routes between these airports
Route: +HAROB6 ERAVE Q1 ETCHY MLBEC BDEGA2
File this flight plan on PilotEdge
Remarks: PBN / A1B1C1D1O1S1 DOF / 180109 REG / N320SB EET / KZOA0104 OPR / ASA PER / C RMK / TCAS SIMBRIEF
Altitude:
(Current/Filed)
33,000ft
Speed:
(Current/Filed)
458kts
Departed: 08-Jan-18 07:43 PM
Arrived: 08-Jan-18 09:38 PM
Distance/Time
Traveled:
590nm/1:54
Distance/Time
To Go:
Arrived

Flight Plot

Page will automatically refresh every two minutes.

Flight plan parsing failed; only flown route is shown


Map Options




Map Legend


Flown Route
Filed Route
Departure Airport
Arrival Airport
Navaid (VOR, NDB)
Fix

Horizontal Profiles

Position Reports

Time Latitude Longitude Heading Altitude Ground
Speed
08-Jan-18 19:15 47.445007 -122.304432 126 442ft 0kts
08-Jan-18 19:16 47.445007 -122.304432 126 442ft 0kts
08-Jan-18 19:17 47.445007 -122.304432 126 442ft 0kts
08-Jan-18 19:18 47.445007 -122.304432 126 442ft 0kts
08-Jan-18 19:27 47.445007 -122.304432 126 442ft 0kts
08-Jan-18 19:28 47.445007 -122.304432 126 442ft 0kts
08-Jan-18 19:29 47.445007 -122.304432 126 442ft 0kts
08-Jan-18 19:30 47.445007 -122.304432 126 442ft 0kts
08-Jan-18 19:31 47.445007 -122.304432 126 442ft 0kts
08-Jan-18 19:32 47.445007 -122.304432 126 442ft 0kts
08-Jan-18 19:33 47.445007 -122.304432 126 442ft 0kts
08-Jan-18 19:34 47.445007 -122.304432 126 442ft 0kts
08-Jan-18 19:35 47.445007 -122.304432 126 442ft 0kts
08-Jan-18 19:36 47.445007 -122.304433 126 442ft 0kts
08-Jan-18 19:37 47.445281 -122.304959 119 442ft 2kts
08-Jan-18 19:38 47.445053 -122.305487 359 442ft 0kts
08-Jan-18 19:39 47.445054 -122.305487 359 442ft 0kts
08-Jan-18 19:40 47.445081 -122.305488 359 442ft 0kts
08-Jan-18 19:41 47.446515 -122.306193 341 442ft 21kts
08-Jan-18 19:42 47.453111 -122.306221 0 442ft 26kts
08-Jan-18 19:43 47.461063 -122.306148 0 442ft 29kts
08-Jan-18 19:44 47.461992 -122.306152 0 442ft 0kts
08-Jan-18 19:45 47.463673 -122.306307 321 442ft 0kts
08-Jan-18 19:46 47.463673 -122.306307 321 442ft 0kts
08-Jan-18 19:47 47.463684 -122.306321 318 442ft 0kts
08-Jan-18 19:48 47.463264 -122.307752 179 442ft 0kts
08-Jan-18 19:49 47.453099 -122.307854 180 467ft 154kts
08-Jan-18 19:50 47.401320 -122.308848 181 3475ft 217kts
08-Jan-18 19:51 47.332381 -122.320095 218 6169ft 274kts
08-Jan-18 19:52 47.309281 -122.418400 258 10035ft 262kts
08-Jan-18 19:53 47.309663 -122.536195 268 11753ft 330kts
08-Jan-18 19:54 47.313422 -122.674762 267 13708ft 360kts
08-Jan-18 19:55 47.304648 -122.812194 244 16837ft 335kts
08-Jan-18 19:56 47.271411 -122.936188 244 19419ft 336kts
08-Jan-18 19:57 47.228364 -123.057255 217 21492ft 338kts
08-Jan-18 19:58 47.152983 -123.139244 215 23504ft 343kts
08-Jan-18 19:59 47.075835 -123.222768 215 25294ft 349kts
08-Jan-18 20:00 46.997843 -123.306957 216 26861ft 356kts
08-Jan-18 20:01 46.915212 -123.387038 202 28142ft 367kts
08-Jan-18 20:02 46.820201 -123.399179 183 29285ft 384kts
08-Jan-18 20:03 46.713173 -123.395563 184 30530ft 390kts
08-Jan-18 20:04 46.608075 -123.392252 184 31613ft 396kts
08-Jan-18 20:05 46.498581 -123.388843 184 32548ft 401kts
08-Jan-18 20:06 46.386762 -123.385371 184 32871ft 404kts
08-Jan-18 20:07 46.274794 -123.381894 184 32885ft 404kts
08-Jan-18 20:08 46.163181 -123.378459 184 32889ft 404kts
08-Jan-18 20:09 46.051125 -123.375028 183 32891ft 403kts
08-Jan-18 20:10 45.940928 -123.371649 184 32885ft 399kts
08-Jan-18 20:11 45.833030 -123.368356 184 32866ft 391kts
08-Jan-18 20:12 45.727027 -123.365126 184 32799ft 381kts
08-Jan-18 20:13 45.621058 -123.361986 184 32848ft 386kts
08-Jan-18 20:14 45.513002 -123.358764 184 32859ft 390kts
08-Jan-18 20:15 45.404604 -123.355499 184 32859ft 390kts
08-Jan-18 20:16 45.296551 -123.352275 184 32845ft 389kts
08-Jan-18 20:17 45.188750 -123.349072 184 32849ft 389kts
08-Jan-18 20:18 45.080905 -123.345888 184 32841ft 390kts
08-Jan-18 20:19 44.972073 -123.342701 184 32802ft 396kts
08-Jan-18 20:20 44.864460 -123.306606 156 32862ft 431kts
08-Jan-18 20:21 44.764003 -123.213168 154 32909ft 434kts
08-Jan-18 20:22 44.664122 -123.120104 154 32909ft 433kts
08-Jan-18 20:23 44.558075 -123.055140 184 32867ft 409kts
08-Jan-18 20:24 44.446133 -123.065070 188 32863ft 404kts
08-Jan-18 20:25 44.334494 -123.075766 188 32824ft 402kts
08-Jan-18 20:26 44.223698 -123.086473 188 32829ft 399kts
08-Jan-18 20:27 44.132762 -123.095229 188 32835ft 394kts
08-Jan-18 20:28 44.006130 -123.107430 188 32835ft 394kts
08-Jan-18 20:29 43.915223 -123.116142 188 32837ft 394kts
08-Jan-18 20:30 43.788636 -123.128236 188 32845ft 394kts
08-Jan-18 20:31 43.697638 -123.136901 188 32838ft 398kts
08-Jan-18 20:32 43.569451 -123.149052 188 32834ft 400kts
08-Jan-18 20:33 43.477275 -123.157748 188 32830ft 399kts
08-Jan-18 20:34 43.348513 -123.169862 188 32822ft 398kts
08-Jan-18 20:35 43.256373 -123.178502 188 32823ft 398kts
08-Jan-18 20:36 43.146318 -123.188786 188 32829ft 399kts
08-Jan-18 20:37 43.035851 -123.199072 188 32832ft 399kts
08-Jan-18 20:38 42.925750 -123.209286 187 32834ft 399kts
08-Jan-18 20:39 42.815926 -123.219441 187 32838ft 400kts
08-Jan-18 20:40 42.704993 -123.229656 187 32846ft 400kts
08-Jan-18 20:41 42.594606 -123.239781 187 32842ft 400kts
08-Jan-18 20:42 42.484009 -123.249339 184 32833ft 400kts
08-Jan-18 20:43 42.372597 -123.246186 182 32825ft 402kts
08-Jan-18 20:44 42.261275 -123.242085 182 32825ft 401kts
08-Jan-18 20:45 42.150043 -123.237999 182 32827ft 401kts
08-Jan-18 20:46 42.038552 -123.233918 182 32827ft 401kts
08-Jan-18 20:47 41.927565 -123.229867 182 32831ft 401kts
08-Jan-18 20:48 41.816387 -123.225829 182 32853ft 402kts
08-Jan-18 20:49 41.705002 -123.221793 182 32863ft 403kts
08-Jan-18 20:50 41.593332 -123.217781 182 32843ft 402kts
08-Jan-18 20:51 41.482260 -123.213942 182 32828ft 402kts
08-Jan-18 20:52 41.370714 -123.210104 182 32825ft 402kts
08-Jan-18 20:53 41.259082 -123.206921 182 32828ft 401kts
08-Jan-18 20:54 41.147763 -123.204128 182 32831ft 401kts
08-Jan-18 20:55 41.036635 -123.201325 181 32847ft 401kts
08-Jan-18 20:56 40.926052 -123.198534 181 32861ft 399kts
08-Jan-18 20:57 40.817748 -123.195822 181 32850ft 399kts
08-Jan-18 20:58 40.707070 -123.193055 181 32854ft 399kts
08-Jan-18 20:59 40.596411 -123.190297 181 32858ft 398kts
08-Jan-18 21:00 40.485732 -123.187546 181 32854ft 398kts
08-Jan-18 21:01 40.375330 -123.184813 181 32852ft 398kts
08-Jan-18 21:02 40.265049 -123.182090 181 32858ft 398kts
08-Jan-18 21:03 40.154570 -123.179372 181 32864ft 398kts
08-Jan-18 21:04 40.044086 -123.176663 181 32848ft 398kts
08-Jan-18 21:05 39.933554 -123.173608 180 32843ft 399kts
08-Jan-18 21:06 39.826961 -123.168490 180 32851ft 400kts
08-Jan-18 21:07 39.716832 -123.163370 180 32862ft 400kts
08-Jan-18 21:08 39.605898 -123.158252 180 32853ft 400kts
08-Jan-18 21:09 39.495445 -123.153176 180 32843ft 399kts
08-Jan-18 21:10 39.384526 -123.148097 180 32837ft 399kts
08-Jan-18 21:11 39.274789 -123.143089 180 32834ft 398kts
08-Jan-18 21:12 39.164900 -123.132534 166 32845ft 404kts
08-Jan-18 21:13 39.062279 -123.072032 160 32833ft 407kts
08-Jan-18 21:14 38.960201 -123.010391 160 32753ft 405kts
08-Jan-18 21:15 38.858801 -122.954445 168 32020ft 398kts
08-Jan-18 21:16 38.779089 -122.930669 170 31472ft 399kts
08-Jan-18 21:17 38.678270 -122.900819 170 30855ft 401kts
08-Jan-18 21:18 38.571701 -122.869338 170 28787ft 395kts
08-Jan-18 21:19 38.465827 -122.838325 169 25945ft 395kts
08-Jan-18 21:20 38.359068 -122.806992 169 22963ft 393kts
08-Jan-18 21:21 38.254688 -122.776415 168 20606ft 383kts
08-Jan-18 21:22 38.152942 -122.746743 168 18269ft 371kts
08-Jan-18 21:23 38.055767 -122.718491 168 16025ft 358kts
08-Jan-18 21:24 37.963780 -122.691776 167 14970ft 315kts
08-Jan-18 21:25 37.888812 -122.662069 144 14155ft 286kts
08-Jan-18 21:26 37.829039 -122.598574 143 12591ft 280kts
08-Jan-18 21:27 37.770510 -122.536559 143 11322ft 268kts
08-Jan-18 21:28 37.716472 -122.479342 142 11048ft 263kts
08-Jan-18 21:29 37.661116 -122.420493 142 11058ft 262kts
08-Jan-18 21:30 37.610447 -122.367075 147 11042ft 227kts
08-Jan-18 21:31 37.557494 -122.331980 154 10625ft 229kts
08-Jan-18 21:32 37.504598 -122.299196 154 9156ft 234kts
08-Jan-18 21:33 37.448515 -122.264596 154 8185ft 225kts
08-Jan-18 21:34 37.394774 -122.227325 131 8176ft 228kts
08-Jan-18 21:35 37.402656 -122.148248 73 8260ft 246kts
08-Jan-18 21:36 37.425325 -122.077597 74 7225ft 237kts
08-Jan-18 21:37 37.473881 -122.044500 331 6228ft 235kts
08-Jan-18 21:38 37.511408 -122.105019 284 4875ft 222kts
08-Jan-18 21:39 37.533128 -122.171104 299 3545ft 185kts
08-Jan-18 21:40 37.554313 -122.221380 299 2408ft 145kts
08-Jan-18 21:41 37.572737 -122.265398 299 1668ft 140kts
08-Jan-18 21:42 37.590714 -122.308307 299 927ft 138kts
08-Jan-18 21:43 37.606698 -122.346432 299 274ft 136kts
08-Jan-18 21:44 37.619903 -122.377886 297 22ft 20kts
08-Jan-18 21:45 37.618921 -122.379880 186 22ft 9kts
08-Jan-18 21:46 37.616669 -122.380370 300 22ft 7kts
08-Jan-18 21:47 37.616763 -122.380577 300 22ft 0kts
08-Jan-18 21:48 37.616763 -122.380577 300 22ft 0kts
08-Jan-18 21:49 37.616763 -122.380577 300 22ft 0kts

Navigation Log

Ident Type
Flight plan parsing failed, navigation log unavailable